createdAt,value
2018-11-13T00:01:44.503Z,36.70
2018-11-13T00:04:13.515Z,35.80
2018-11-13T00:06:42.636Z,35.63
2018-11-13T00:09:11.680Z,36.43
2018-11-13T00:11:40.725Z,36.87
2018-11-13T00:14:09.712Z,35.70
2018-11-13T00:16:38.688Z,34.20
2018-11-13T00:19:07.770Z,35.80
2018-11-13T00:21:37.073Z,37.33
2018-11-13T00:24:06.688Z,34.80
2018-11-13T00:26:35.785Z,36.17
2018-11-13T00:29:05.022Z,35.53
2018-11-13T00:31:34.108Z,37.03
2018-11-13T00:34:03.514Z,36.03
2018-11-13T00:36:37.365Z,33.27
2018-11-13T00:39:10.870Z,36.20
2018-11-13T00:41:39.961Z,37.93
2018-11-13T00:44:09.613Z,35.87
2018-11-13T00:46:39.250Z,35.50
2018-11-13T00:49:08.577Z,37.13
2018-11-13T00:51:38.570Z,33.97
2018-11-13T00:54:07.614Z,36.57
2018-11-13T00:56:36.751Z,37.87
2018-11-13T00:59:06.009Z,37.87
2018-11-13T01:01:35.729Z,37.10
2018-11-13T01:04:04.916Z,36.93
2018-11-13T01:06:34.055Z,38.70
2018-11-13T01:09:03.154Z,37.50
2018-11-13T01:11:32.566Z,37.13
2018-11-13T01:14:01.752Z,33.43
2018-11-13T01:16:30.949Z,35.10
2018-11-13T01:19:00.168Z,36.80
2018-11-13T01:21:29.246Z,35.73
2018-11-13T01:23:58.365Z,33.47
2018-11-13T01:26:31.803Z,32.97
2018-11-13T01:29:00.777Z,37.17
2018-11-13T01:31:30.280Z,35.60
2018-11-13T01:33:59.405Z,34.97
2018-11-13T01:36:28.439Z,34.37
2018-11-13T01:38:57.564Z,33.10
2018-11-13T01:41:26.728Z,36.20
2018-11-13T01:43:55.864Z,36.73
2018-11-13T01:46:24.947Z,37.10
2018-11-13T01:48:54.484Z,36.40
2018-11-13T01:51:23.217Z,36.73
2018-11-13T01:53:52.312Z,37.30
2018-11-13T01:56:21.471Z,37.67
2018-11-13T01:58:50.568Z,38.33
2018-11-13T02:01:20.003Z,39.23
2018-11-13T02:03:49.309Z,36.77
2018-11-13T02:06:18.388Z,35.63
2018-11-13T02:08:47.492Z,38.93
2018-11-13T02:11:16.843Z,35.47
2018-11-13T02:13:45.885Z,37.33
2018-11-13T02:16:15.467Z,38.60
2018-11-13T02:18:45.169Z,41.77
2018-11-13T02:21:14.629Z,35.57
2018-11-13T02:23:44.166Z,34.83
2018-11-13T02:26:14.182Z,36.50
2018-11-13T02:28:43.530Z,35.03
2018-11-13T02:31:13.361Z,34.37
2018-11-13T02:33:42.754Z,36.23
2018-11-13T02:36:11.967Z,35.53
2018-11-13T02:38:41.068Z,34.27
2018-11-13T02:41:10.246Z,34.90
2018-11-13T02:43:39.496Z,34.93
2018-11-13T02:46:08.785Z,32.53
2018-11-13T02:48:37.967Z,35.70
2018-11-13T02:51:07.345Z,36.47
2018-11-13T02:56:03.505Z,33.50
2018-11-13T02:58:32.756Z,32.57
2018-11-13T03:01:02.104Z,35.53
2018-11-13T03:03:31.443Z,34.00
2018-11-13T03:06:00.625Z,34.00
2018-11-13T03:08:29.820Z,34.93
2018-11-13T03:10:59.071Z,34.93
2018-11-13T03:13:28.212Z,33.07
2018-11-13T03:15:57.480Z,33.40
2018-11-13T03:18:26.705Z,33.10
2018-11-13T03:20:56.092Z,33.47
2018-11-13T03:23:25.423Z,33.80
2018-11-13T03:25:54.613Z,32.97
2018-11-13T03:28:23.710Z,34.10
2018-11-13T03:30:52.998Z,32.13
2018-11-13T03:33:22.278Z,31.23
2018-11-13T03:35:51.548Z,32.97
2018-11-13T03:38:20.605Z,31.63
2018-11-13T03:40:49.729Z,32.57
2018-11-13T03:43:18.798Z,31.40
2018-11-13T03:45:48.098Z,31.70
2018-11-13T03:48:17.264Z,32.77
2018-11-13T03:50:46.535Z,34.17
2018-11-13T03:53:15.657Z,33.73
2018-11-13T03:55:44.883Z,31.30
2018-11-13T03:58:14.164Z,35.97
2018-11-13T04:00:43.400Z,33.97
2018-11-13T04:03:12.682Z,33.20
2018-11-13T04:05:41.878Z,32.20
2018-11-13T04:08:10.993Z,30.70
2018-11-13T04:10:40.211Z,33.03
2018-11-13T04:13:09.258Z,31.77
2018-11-13T04:15:38.309Z,30.97
2018-11-13T04:18:07.741Z,33.63
2018-11-13T04:20:36.748Z,31.50
2018-11-13T04:23:09.814Z,30.73
2018-11-13T04:25:39.037Z,34.10
2018-11-13T04:28:08.117Z,31.67
2018-11-13T04:30:41.614Z,34.63
2018-11-13T04:33:10.670Z,32.77
2018-11-13T04:35:39.721Z,29.60
2018-11-13T04:38:08.826Z,32.10
2018-11-13T04:40:38.412Z,32.93
2018-11-13T04:43:07.536Z,30.83
2018-11-13T04:45:36.784Z,31.80
2018-11-13T04:48:06.263Z,28.77
2018-11-13T04:50:35.430Z,31.60
2018-11-13T04:53:04.838Z,33.23
2018-11-13T04:55:34.124Z,28.40
2018-11-13T04:58:03.187Z,30.53
2018-11-13T05:00:32.561Z,31.43
2018-11-13T05:03:01.795Z,32.17
2018-11-13T05:05:31.024Z,30.90
2018-11-13T05:08:00.669Z,32.00
2018-11-13T05:10:30.662Z,29.23
2018-11-13T05:12:59.985Z,29.57
2018-11-13T05:15:30.167Z,31.50
2018-11-13T05:17:59.315Z,29.87
2018-11-13T05:20:28.710Z,29.73
2018-11-13T05:22:58.639Z,30.90
2018-11-13T05:25:27.766Z,30.13
2018-11-13T05:27:56.886Z,28.40
2018-11-13T05:30:26.184Z,30.33
2018-11-13T05:32:55.285Z,29.73
2018-11-13T05:35:24.404Z,30.70
2018-11-13T05:37:53.517Z,28.63
2018-11-13T05:40:24.899Z,31.17
2018-11-13T05:42:54.176Z,33.00
2018-11-13T05:45:25.583Z,29.17
2018-11-13T05:47:54.849Z,30.77
2018-11-13T05:50:31.598Z,30.33
2018-11-13T05:53:01.941Z,30.90
2018-11-13T05:55:31.302Z,29.60
2018-11-13T05:58:02.601Z,31.60
2018-11-13T06:00:33.351Z,28.63
2018-11-13T06:03:03.407Z,29.53
2018-11-13T06:05:33.119Z,29.30
2018-11-13T06:08:02.179Z,30.67
2018-11-13T06:10:31.263Z,30.83
2018-11-13T06:13:00.402Z,29.00
2018-11-13T06:15:29.513Z,30.40
2018-11-13T06:17:58.836Z,31.13
2018-11-13T06:20:29.161Z,27.67
2018-11-13T06:22:58.497Z,30.63
2018-11-13T06:25:27.756Z,29.30
2018-11-13T06:27:57.629Z,28.83
2018-11-13T06:30:27.469Z,30.07
2018-11-13T06:32:56.702Z,28.97
2018-11-13T06:35:29.952Z,28.73
2018-11-13T06:37:59.004Z,29.20
2018-11-13T06:40:28.174Z,28.13
2018-11-13T06:42:57.247Z,29.27
2018-11-13T06:45:26.555Z,27.13
2018-11-13T06:47:55.632Z,27.33
2018-11-13T06:50:24.805Z,29.90
2018-11-13T06:52:53.961Z,29.53
2018-11-13T06:55:29.190Z,30.00
2018-11-13T06:57:58.593Z,29.80
2018-11-13T07:00:28.592Z,27.67
2018-11-13T07:02:57.832Z,27.60
2018-11-13T07:05:27.653Z,26.83
2018-11-13T07:07:56.822Z,26.53
2018-11-13T07:10:28.556Z,28.70
2018-11-13T07:12:58.460Z,28.93
2018-11-13T07:15:31.738Z,26.50
2018-11-13T07:18:05.201Z,27.13
2018-11-13T07:20:36.251Z,26.13
2018-11-13T07:23:05.628Z,26.10
2018-11-13T07:25:35.255Z,26.83
2018-11-13T07:28:04.658Z,27.57
2018-11-13T07:30:34.653Z,28.67
2018-11-13T07:33:03.950Z,24.43
2018-11-13T07:35:33.540Z,26.63
2018-11-13T07:40:29.803Z,26.30
2018-11-13T07:42:59.544Z,27.53
2018-11-13T07:45:28.850Z,26.27
2018-11-13T07:47:58.165Z,26.10
2018-11-13T07:50:27.955Z,27.33
2018-11-13T07:52:57.358Z,29.03
2018-11-13T07:55:26.699Z,26.00
2018-11-13T07:57:56.466Z,27.63
2018-11-13T08:00:25.777Z,26.47
2018-11-13T08:02:56.294Z,27.20
2018-11-13T08:05:25.469Z,26.03
2018-11-13T08:07:55.406Z,27.47
2018-11-13T08:10:24.781Z,27.70
2018-11-13T08:12:54.148Z,26.33
2018-11-13T08:15:24.368Z,25.47
2018-11-13T08:17:53.639Z,26.20
2018-11-13T08:20:23.436Z,27.13
2018-11-13T08:22:54.843Z,27.37
2018-11-13T08:25:24.664Z,26.83
2018-11-13T08:27:55.227Z,27.73
2018-11-13T08:30:24.950Z,26.10
2018-11-13T08:32:54.200Z,26.87
2018-11-13T08:35:23.623Z,26.23
2018-11-13T08:37:54.768Z,24.70
2018-11-13T08:40:31.852Z,28.23
2018-11-13T08:43:01.536Z,25.13
2018-11-13T08:48:06.547Z,25.13
2018-11-13T08:50:40.091Z,26.57
2018-11-13T08:53:15.086Z,25.67
2018-11-13T08:55:45.969Z,25.70
2018-11-13T08:58:15.717Z,24.77
2018-11-13T09:00:46.007Z,24.87
2018-11-13T09:03:15.801Z,26.33
2018-11-13T09:05:50.647Z,24.70
2018-11-13T09:08:20.353Z,25.40
2018-11-13T09:10:56.538Z,24.57
2018-11-13T09:13:26.751Z,25.20
2018-11-13T09:15:56.152Z,25.50
2018-11-13T09:18:26.738Z,24.97
2018-11-13T09:20:55.933Z,25.53
2018-11-13T09:23:26.293Z,26.27
2018-11-13T09:25:56.090Z,25.67
2018-11-13T09:28:25.496Z,25.60
2018-11-13T09:30:55.253Z,24.73
2018-11-13T09:33:25.131Z,25.13
2018-11-13T09:35:54.423Z,24.40
2018-11-13T09:38:23.623Z,24.83
2018-11-13T09:40:54.289Z,23.93
2018-11-13T09:43:23.712Z,25.40
2018-11-13T09:45:53.319Z,24.37
2018-11-13T09:48:22.580Z,25.80
2018-11-13T09:50:51.992Z,25.83
2018-11-13T09:53:21.403Z,24.70
2018-11-13T09:55:50.777Z,25.37
2018-11-13T09:58:32.102Z,23.80
2018-11-13T10:01:03.284Z,24.40
2018-11-13T10:03:33.036Z,26.80
2018-11-13T10:06:03.780Z,25.03
2018-11-13T10:08:33.558Z,26.17
2018-11-13T10:11:02.737Z,25.97
2018-11-13T10:13:32.176Z,24.93
2018-11-13T10:16:01.335Z,26.63
2018-11-13T10:18:30.755Z,22.93
2018-11-13T10:21:06.250Z,23.33
2018-11-13T10:23:35.551Z,22.87
2018-11-13T10:26:04.737Z,22.87
2018-11-13T10:28:34.200Z,22.23
2018-11-13T10:31:04.521Z,23.73
2018-11-13T10:33:34.372Z,22.67
2018-11-13T10:36:10.296Z,23.60
2018-11-13T10:38:39.413Z,23.60
2018-11-13T10:41:08.713Z,22.30
2018-11-13T10:43:39.525Z,23.53
2018-11-13T10:46:15.454Z,23.47
2018-11-13T10:48:44.631Z,22.73
2018-11-13T10:51:13.777Z,22.27
2018-11-13T10:53:43.061Z,22.30
2018-11-13T10:56:12.332Z,21.93
2018-11-13T10:58:41.543Z,22.60
2018-11-13T11:02:17.910Z,21.87
2018-11-13T11:04:50.130Z,21.00
2018-11-13T11:07:19.428Z,21.97
2018-11-13T11:09:48.543Z,22.20
2018-11-13T11:12:17.788Z,20.17
2018-11-13T11:14:47.046Z,21.87
2018-11-13T11:17:17.118Z,21.90
2018-11-13T11:19:46.504Z,23.43
2018-11-13T11:22:16.565Z,22.27
2018-11-13T11:24:48.244Z,23.13
2018-11-13T11:27:18.768Z,22.83
2018-11-13T11:29:48.861Z,22.80
2018-11-13T11:32:17.950Z,20.87
2018-11-13T11:34:47.455Z,22.03
2018-11-13T11:37:17.691Z,22.57
2018-11-13T11:39:47.371Z,23.40
2018-11-13T11:42:16.590Z,24.83
2018-11-13T11:44:45.746Z,23.73
2018-11-13T11:47:14.670Z,23.53
2018-11-13T11:49:43.875Z,23.30
2018-11-13T11:52:12.930Z,21.77
2018-11-13T11:54:47.421Z,22.10
2018-11-13T11:57:16.765Z,22.67
2018-11-13T11:59:46.143Z,25.10
2018-11-13T12:02:15.442Z,23.77
2018-11-13T12:04:44.682Z,24.67
2018-11-13T12:09:46.805Z,23.90
2018-11-13T12:12:16.621Z,25.53
2018-11-13T12:14:46.926Z,24.03
2018-11-13T12:17:16.120Z,23.97
2018-11-13T12:19:46.193Z,25.13
2018-11-13T12:24:43.752Z,23.07
2018-11-13T12:27:12.836Z,22.77
2018-11-13T12:29:42.632Z,24.30
2018-11-13T12:32:11.925Z,23.00
2018-11-13T12:34:41.522Z,25.20
2018-11-13T12:37:10.732Z,24.37
2018-11-13T12:39:39.881Z,26.27
2018-11-13T12:42:09.469Z,24.40
2018-11-13T12:44:39.220Z,24.67
2018-11-13T12:47:08.500Z,24.33
2018-11-13T12:49:38.634Z,22.57
2018-11-13T12:52:13.085Z,25.00
2018-11-13T12:54:42.236Z,24.37
2018-11-13T12:57:11.282Z,25.40
2018-11-13T12:59:40.449Z,24.83
2018-11-13T13:02:10.795Z,25.53
2018-11-13T13:04:40.053Z,25.97
2018-11-13T13:07:10.401Z,24.90
2018-11-13T13:09:39.576Z,25.83
2018-11-13T13:12:10.168Z,25.80
2018-11-13T13:14:39.388Z,25.00
2018-11-13T13:17:08.685Z,25.27
2018-11-13T13:19:37.829Z,25.90
2018-11-13T13:24:34.333Z,24.43
2018-11-13T13:27:03.788Z,25.80
2018-11-13T13:29:35.996Z,25.10
2018-11-13T13:32:05.524Z,26.10
2018-11-13T13:34:34.697Z,25.60
2018-11-13T13:37:05.585Z,23.87
2018-11-13T13:39:34.813Z,24.17
2018-11-13T13:42:03.957Z,23.40
2018-11-13T13:44:33.347Z,21.20
2018-11-13T13:47:02.627Z,21.60
2018-11-13T13:49:31.810Z,22.67
2018-11-13T13:52:01.001Z,20.17
2018-11-13T13:54:31.275Z,21.30
2018-11-13T13:57:00.425Z,20.40
2018-11-13T13:59:29.843Z,21.10
2018-11-13T14:01:59.802Z,19.20
2018-11-13T14:04:30.345Z,18.43
2018-11-13T14:06:59.546Z,19.30
2018-11-13T14:09:28.890Z,19.10
2018-11-13T14:11:57.943Z,19.10
2018-11-13T14:14:27.157Z,18.97
2018-11-13T14:16:56.389Z,18.17
2018-11-13T14:19:26.233Z,17.87
2018-11-13T14:21:57.662Z,17.93
2018-11-13T14:24:26.998Z,16.43
2018-11-13T14:26:56.364Z,16.03
2018-11-13T14:29:25.866Z,15.83
2018-11-13T14:31:55.163Z,18.17
2018-11-13T14:34:24.582Z,17.53
2018-11-13T14:36:53.966Z,17.83
2018-11-13T14:39:23.267Z,16.83
2018-11-13T14:41:52.749Z,17.07
2018-11-13T14:44:23.125Z,17.23
2018-11-13T14:46:52.538Z,17.80
2018-11-13T14:49:22.835Z,16.77
2018-11-13T14:51:52.325Z,16.53
2018-11-13T14:54:21.458Z,17.27
2018-11-13T14:56:50.807Z,17.57
2018-11-13T14:59:20.310Z,17.83
2018-11-13T15:01:49.918Z,17.57
2018-11-13T15:04:19.285Z,16.40
2018-11-13T15:06:51.367Z,17.77
2018-11-13T15:09:23.412Z,16.17
2018-11-13T15:11:56.700Z,16.13
2018-11-13T15:14:25.834Z,17.13
2018-11-13T15:17:00.631Z,14.13
2018-11-13T15:19:43.420Z,15.27
2018-11-13T15:22:20.029Z,14.77
2018-11-13T15:24:49.210Z,14.33
2018-11-13T15:27:18.410Z,15.63
2018-11-13T15:29:48.455Z,15.33
2018-11-13T15:32:17.636Z,16.20
2018-11-13T15:34:46.953Z,17.70
2018-11-13T15:37:18.173Z,18.53
2018-11-13T15:39:47.454Z,19.10
2018-11-13T15:42:16.612Z,19.03
2018-11-13T15:44:45.977Z,20.07
2018-11-13T15:47:15.236Z,17.80
2018-11-13T15:49:45.165Z,20.27
2018-11-13T15:52:15.494Z,17.50
2018-11-13T15:54:44.657Z,17.43
2018-11-13T15:57:16.149Z,17.60
2018-11-13T15:59:45.430Z,16.03
2018-11-13T16:02:14.633Z,15.43
2018-11-13T16:04:43.831Z,14.90
2018-11-13T16:07:12.994Z,13.83
2018-11-13T16:09:42.791Z,13.83
2018-11-13T16:12:12.050Z,13.97
2018-11-13T16:14:42.079Z,13.57
2018-11-13T16:17:11.355Z,13.03
2018-11-13T16:19:40.613Z,13.47
2018-11-13T16:22:09.826Z,13.53
2018-11-13T16:24:39.090Z,13.73
2018-11-13T16:27:08.309Z,12.13
2018-11-13T16:29:37.497Z,13.43
2018-11-13T16:32:06.848Z,13.37
2018-11-13T16:34:36.061Z,13.23
2018-11-13T16:37:05.329Z,13.07
2018-11-13T16:39:34.525Z,13.53
2018-11-13T16:42:03.780Z,13.17
2018-11-13T16:44:32.650Z,13.50
2018-11-13T16:47:03.586Z,13.40
2018-11-13T16:49:32.994Z,14.30
2018-11-13T16:52:02.873Z,13.30
2018-11-13T16:54:52.118Z,12.87
2018-11-13T16:57:22.515Z,13.90
2018-11-13T16:59:51.878Z,13.90
2018-11-13T17:02:21.963Z,14.23
2018-11-13T17:04:51.187Z,15.70
2018-11-13T17:07:21.172Z,15.83
2018-11-13T17:09:50.316Z,15.90
2018-11-13T17:12:19.944Z,14.03
2018-11-13T17:14:50.028Z,15.30
2018-11-13T17:17:20.188Z,14.67
2018-11-13T17:19:49.274Z,13.57
2018-11-13T17:22:18.841Z,12.93
2018-11-13T17:24:48.033Z,12.43
2018-11-13T17:27:17.156Z,13.77
2018-11-13T17:29:46.369Z,12.43
2018-11-13T17:32:15.627Z,12.80
2018-11-13T17:34:45.244Z,13.10
2018-11-13T17:37:14.375Z,13.37
2018-11-13T17:39:43.773Z,13.53
2018-11-13T17:42:13.851Z,13.40
2018-11-13T17:44:43.337Z,13.07
2018-11-13T17:47:12.461Z,13.53
2018-11-13T17:49:41.469Z,12.47
2018-11-13T17:52:10.666Z,13.40
2018-11-13T17:54:39.771Z,12.20
2018-11-13T17:57:09.495Z,12.57
2018-11-13T17:59:38.791Z,13.20
2018-11-13T18:02:08.810Z,12.70
2018-11-13T18:04:38.144Z,13.70
2018-11-13T18:07:07.634Z,12.67
2018-11-13T18:09:36.990Z,13.60
2018-11-13T18:12:07.285Z,12.93
2018-11-13T18:14:36.461Z,13.60
2018-11-13T18:17:06.291Z,13.23
2018-11-13T18:19:35.704Z,13.27
2018-11-13T18:22:05.222Z,13.30
2018-11-13T18:24:35.185Z,13.60
2018-11-13T18:27:04.693Z,12.60
2018-11-13T18:29:34.318Z,12.63
2018-11-13T18:32:03.580Z,13.53
2018-11-13T18:34:37.345Z,12.63
2018-11-13T18:37:07.193Z,12.73
2018-11-13T18:39:36.646Z,13.23
2018-11-13T18:42:06.301Z,13.50
2018-11-13T18:44:35.551Z,12.63
2018-11-13T18:47:05.204Z,12.23
2018-11-13T18:49:36.030Z,13.60
2018-11-13T18:52:05.861Z,14.90
2018-11-13T18:54:35.264Z,14.13
2018-11-13T18:57:05.187Z,13.30
2018-11-13T18:59:36.810Z,13.33
2018-11-13T19:02:06.987Z,14.77
2018-11-13T19:04:36.598Z,14.93
2018-11-13T19:07:08.367Z,14.30
2018-11-13T19:09:37.747Z,14.93
2018-11-13T19:12:08.429Z,12.13
2018-11-13T19:14:37.495Z,12.90
2018-11-13T19:17:07.132Z,12.43
2018-11-13T19:19:37.575Z,11.00
2018-11-13T19:22:07.912Z,10.77
2018-11-13T19:24:37.351Z,9.90
2018-11-13T19:27:06.819Z,8.50
2018-11-13T19:29:37.853Z,7.37
2018-11-13T19:32:09.055Z,7.17
2018-11-13T19:34:38.692Z,8.63
2018-11-13T19:37:08.741Z,7.40
2018-11-13T19:39:39.951Z,8.30
2018-11-13T19:42:09.273Z,7.97
2018-11-13T19:44:38.782Z,8.50
2018-11-13T19:47:08.150Z,9.60
2018-11-13T19:52:04.399Z,9.53
2018-11-13T19:54:33.503Z,9.27
2018-11-13T19:57:04.256Z,10.33
2018-11-13T19:59:33.385Z,10.30
2018-11-13T20:02:02.644Z,10.37
2018-11-13T20:04:32.086Z,11.40
2018-11-13T20:07:02.183Z,11.07
2018-11-13T20:09:32.520Z,11.87
2018-11-13T20:12:05.702Z,12.63
2018-11-13T20:14:34.840Z,13.43
2018-11-13T20:17:03.989Z,20.10
2018-11-13T20:19:34.218Z,18.13
2018-11-13T20:22:04.408Z,18.40
2018-11-13T20:24:33.652Z,16.17
2018-11-13T20:27:02.917Z,15.67
2018-11-13T20:29:32.036Z,15.17
2018-11-13T20:32:01.150Z,13.73
2018-11-13T20:34:30.337Z,15.07
2018-11-13T20:36:59.800Z,13.10
2018-11-13T20:39:29.145Z,13.50
2018-11-13T20:41:58.925Z,13.57
2018-11-13T20:44:28.015Z,15.70
2018-11-13T20:46:57.626Z,15.83
2018-11-13T20:49:26.859Z,16.63
2018-11-13T20:51:56.058Z,15.93
2018-11-13T20:54:26.698Z,15.93
2018-11-13T20:56:56.027Z,15.03
2018-11-13T20:59:25.260Z,14.47
2018-11-13T21:01:54.306Z,15.23
2018-11-13T21:04:24.135Z,15.13
2018-11-13T21:06:55.067Z,14.30
2018-11-13T21:09:24.214Z,14.20
2018-11-13T21:11:53.541Z,13.80
2018-11-13T21:14:22.671Z,14.83
2018-11-13T21:16:52.260Z,15.13
2018-11-13T21:19:22.231Z,14.73
2018-11-13T21:21:52.591Z,15.77
2018-11-13T21:24:21.552Z,16.03
2018-11-13T21:26:50.610Z,15.57
2018-11-13T21:29:19.735Z,15.23
2018-11-13T21:31:50.224Z,15.53
2018-11-13T21:34:19.349Z,16.10
2018-11-13T21:36:48.354Z,14.43
2018-11-13T21:39:17.457Z,14.83
2018-11-13T21:41:47.367Z,14.90
2018-11-13T21:44:17.050Z,14.60
2018-11-13T21:46:46.529Z,15.57
2018-11-13T21:49:15.700Z,15.90
2018-11-13T21:51:46.259Z,14.07
2018-11-13T21:54:15.345Z,16.17
2018-11-13T21:56:44.951Z,13.90
2018-11-13T21:59:15.020Z,14.03
2018-11-13T22:01:44.762Z,15.83
2018-11-13T22:04:14.003Z,13.67
2018-11-13T22:06:45.037Z,14.57
2018-11-13T22:09:14.020Z,14.50
2018-11-13T22:11:43.134Z,15.13
2018-11-13T22:14:12.300Z,15.10
2018-11-13T22:16:41.374Z,15.90
2018-11-13T22:19:10.700Z,15.10
2018-11-13T22:21:39.784Z,15.60
2018-11-13T22:24:09.796Z,15.47
2018-11-13T22:26:38.771Z,15.10
2018-11-13T22:29:07.812Z,15.63
2018-11-13T22:31:37.141Z,15.70
2018-11-13T22:34:06.745Z,14.87
2018-11-13T22:36:35.776Z,15.00
2018-11-13T22:39:06.725Z,15.47
2018-11-13T22:41:35.675Z,15.73
2018-11-13T22:44:04.686Z,15.53
2018-11-13T22:46:33.769Z,13.97
2018-11-13T22:49:02.783Z,14.97
2018-11-13T22:51:31.738Z,14.43
2018-11-13T22:54:01.107Z,14.63
2018-11-13T22:56:30.345Z,13.53
2018-11-13T22:58:59.299Z,14.00
2018-11-13T23:01:28.493Z,13.70
2018-11-13T23:03:57.543Z,13.87
2018-11-13T23:06:26.614Z,13.67
2018-11-13T23:08:55.998Z,13.87
2018-11-13T23:11:25.019Z,14.03
2018-11-13T23:13:54.114Z,13.63
2018-11-13T23:16:23.040Z,13.57
2018-11-13T23:18:52.007Z,13.10
2018-11-13T23:21:21.384Z,12.30
2018-11-13T23:23:50.394Z,12.27
2018-11-13T23:26:19.393Z,12.13
2018-11-13T23:28:48.382Z,12.20
2018-11-13T23:31:17.318Z,11.83
2018-11-13T23:33:46.350Z,12.03
2018-11-13T23:36:15.410Z,12.03
2018-11-13T23:38:44.397Z,11.17
2018-11-13T23:41:13.368Z,10.30
2018-11-13T23:43:42.351Z,11.80
2018-11-13T23:46:11.397Z,10.87
2018-11-13T23:48:40.417Z,11.20
2018-11-13T23:51:09.515Z,10.83
2018-11-13T23:53:38.801Z,11.17
2018-11-13T23:56:07.958Z,10.77
2018-11-13T23:58:37.061Z,10.53
